Time;durP1;ratioP1;P1;durP2;ratioP2;P2;SDS_P1;SDS_P2;PMS_P1;PMS_P2;Temp;Humidity;BMP_temperature;BMP_pressure;BME280_temperature;BME280_humidity;BME280_pressure;Samples;Min_cycle;Max_cycle;Signal;HPM_P1;HPM_P2
2022/08/14 00:01:09;;;;;;;4.78;4.10;;;12.50;99.90;;;;;;20646552;23;20436;-64
2022/08/14 00:11:12;;;;;;;5.22;4.65;;;12.40;99.90;;;;;;20669820;23;20078;-54
2022/08/14 00:21:15;;;;;;;5.45;4.88;;;12.20;99.90;;;;;;20651472;23;20589;-54
2022/08/14 00:31:18;;;;;;;5.50;4.95;;;12.20;99.90;;;;;;20738043;23;20083;-52
2022/08/14 00:41:23;;;;;;;6.90;5.78;;;12.10;99.90;;;;;;20649110;23;20126;-61
2022/08/14 00:51:31;;;;;;;6.88;5.07;;;11.90;99.90;;;;;;20593986;23;20094;-62
2022/08/14 01:01:47;;;;;;;6.80;5.67;;;11.80;99.90;;;;;;20531146;23;20118;-55
2022/08/14 01:11:51;;;;;;;6.70;5.57;;;11.70;99.90;;;;;;20684692;23;20449;-62
2022/08/14 01:21:54;;;;;;;8.35;5.35;;;11.60;99.90;;;;;;20694133;23;20043;-49
2022/08/14 01:32:00;;;;;;;6.10;5.50;;;11.50;99.90;;;;;;20635614;23;20582;-53
2022/08/14 01:42:13;;;;;;;6.72;5.63;;;11.50;99.90;;;;;;20763833;23;20083;-62
2022/08/14 01:52:16;;;;;;;9.18;5.97;;;11.50;99.90;;;;;;20683128;23;20102;-55
2022/08/14 02:02:54;;;;;;;8.57;6.05;;;11.40;99.90;;;;;;20639273;23;20079;-57
2022/08/14 02:12:56;;;;;;;8.20;6.45;;;11.40;99.90;;;;;;20637621;23;20118;-47
2022/08/14 02:22:59;;;;;;;8.93;6.30;;;11.40;99.90;;;;;;20689396;23;20456;-51
2022/08/14 02:33:04;;;;;;;6.80;6.05;;;11.50;99.90;;;;;;20677498;23;20087;-62
2022/08/14 02:43:30;;;;;;;6.88;5.50;;;11.50;99.90;;;;;;20636355;23;20055;-46
2022/08/14 02:53:33;;;;;;;5.82;5.22;;;11.60;99.90;;;;;;20595036;23;20115;-51
2022/08/14 03:03:37;;;;;;;7.85;6.68;;;11.60;99.90;;;;;;20645869;23;20055;-63
2022/08/14 03:13:43;;;;;;;6.70;6.00;;;11.60;99.90;;;;;;20694992;23;20051;-54
2022/08/14 03:23:47;;;;;;;7.88;5.60;;;11.60;99.90;;;;;;20705947;23;20129;-55
2022/08/14 03:33:50;;;;;;;7.53;5.75;;;11.80;99.90;;;;;;20674664;23;20117;-47
2022/08/14 03:43:57;;;;;;;6.43;5.35;;;11.60;99.90;;;;;;20676188;23;20106;-56
2022/08/14 03:54:08;;;;;;;6.85;5.30;;;11.90;99.90;;;;;;20600535;23;1319405;31
2022/08/14 04:04:13;;;;;;;7.57;5.43;;;12.20;99.90;;;;;;20581920;23;20567;-46
2022/08/14 04:14:16;;;;;;;7.35;5.85;;;12.00;99.90;;;;;;20677193;23;20055;-56
2022/08/14 04:24:18;;;;;;;7.88;5.38;;;11.60;99.90;;;;;;20697810;23;20039;-47
2022/08/14 04:34:21;;;;;;;9.32;5.68;;;11.70;99.90;;;;;;20681139;23;20509;-48
2022/08/14 04:44:23;;;;;;;8.57;6.40;;;11.80;99.90;;;;;;20711460;23;20116;-53
2022/08/14 04:54:26;;;;;;;10.88;8.95;;;11.90;99.90;;;;;;20692201;23;20031;-62
2022/08/14 05:04:29;;;;;;;5.97;5.18;;;12.00;99.90;;;;;;20622791;23;20552;-63
2022/08/14 05:14:32;;;;;;;8.32;7.05;;;12.30;99.90;;;;;;20717309;23;20157;-55
2022/08/14 05:25:08;;;;;;;6.65;5.50;;;12.50;99.90;;;;;;20707902;23;20592;-53
2022/08/14 05:35:10;;;;;;;5.88;4.95;;;12.60;99.90;;;;;;20701577;23;20067;-56
2022/08/14 05:45:15;;;;;;;6.20;5.30;;;12.60;99.90;;;;;;20754873;23;20055;-55
2022/08/14 05:55:49;;;;;;;6.35;5.00;;;12.60;99.90;;;;;;20602356;23;20512;-63
2022/08/14 06:05:54;;;;;;;5.78;4.60;;;12.70;99.90;;;;;;20690550;23;20083;-57
2022/08/14 06:15:59;;;;;;;7.38;5.85;;;13.00;99.90;;;;;;20780915;23;20055;-52
2022/08/14 06:26:10;;;;;;;6.43;5.82;;;13.20;99.90;;;;;;20802824;23;20055;-48
2022/08/14 06:36:16;;;;;;;4.72;4.22;;;13.60;99.90;;;;;;20684613;23;20110;-53
2022/08/14 06:46:18;;;;;;;4.63;3.83;;;15.20;99.90;;;;;;20740312;23;20390;-68
2022/08/14 06:56:22;;;;;;;3.88;3.53;;;17.80;99.90;;;;;;20678886;23;20059;-56
2022/08/14 07:06:24;;;;;;;4.50;2.90;;;19.10;99.90;;;;;;20586641;23;20055;-56
2022/08/14 07:16:43;;;;;;;2.53;2.15;;;20.30;99.90;;;;;;20823265;23;20055;-65
2022/08/14 07:26:46;;;;;;;3.15;2.85;;;21.50;98.60;;;;;;20695074;23;20051;-57
2022/08/14 07:36:48;;;;;;;2.25;2.15;;;22.60;95.40;;;;;;20767057;23;20026;-69
2022/08/14 07:46:51;;;;;;;2.95;2.75;;;23.10;95.40;;;;;;20744290;23;20051;-55
2022/08/14 07:56:53;;;;;;;4.13;2.50;;;23.20;94.00;;;;;;20738118;23;20468;-52
2022/08/14 08:06:56;;;;;;;2.60;2.40;;;23.40;92.70;;;;;;20891274;23;20826;-65
2022/08/14 08:17:33;;;;;;;3.67;2.40;;;23.10;92.30;;;;;;20776031;23;20150;-68
2022/08/14 08:28:01;;;;;;;2.80;2.50;;;22.90;94.70;;;;;;20728856;23;20051;-54
2022/08/14 08:38:14;;;;;;;3.83;3.08;;;23.00;93.40;;;;;;20795868;23;20059;-61
2022/08/14 08:48:48;;;;;;;3.70;3.40;;;23.30;91.80;;;;;;20611548;23;20071;-52
2022/08/14 08:58:57;;;;;;;3.33;3.03;;;23.50;90.50;;;;;;20901124;23;20055;-46
2022/08/14 09:09:01;;;;;;;2.97;2.42;;;23.30;92.00;;;;;;20778963;23;20127;-54
2022/08/14 09:19:17;;;;;;;3.47;3.17;;;23.50;93.40;;;;;;20672652;23;20416;31
2022/08/14 09:29:21;;;;;;;3.80;2.75;;;24.10;89.40;;;;;;20636955;23;20124;-68
2022/08/14 09:39:59;;;;;;;4.20;2.22;;;23.60;91.80;;;;;;20835744;23;20051;-55
2022/08/14 09:50:01;;;;;;;3.50;3.03;;;23.90;90.30;;;;;;20732062;23;20180;-67
2022/08/14 10:00:18;;;;;;;5.47;2.20;;;24.20;90.30;;;;;;20938520;23;20023;-51
2022/08/14 10:10:42;;;;;;;3.03;2.17;;;24.30;93.60;;;;;;20674155;23;20059;-52
2022/08/14 10:21:15;;;;;;;4.32;2.08;;;24.00;91.30;;;;;;20747699;23;20051;-63
2022/08/14 10:31:24;;;;;;;2.28;1.67;;;24.10;89.70;;;;;;20711145;23;20102;-54
2022/08/14 10:41:48;;;;;;;1.77;1.67;;;24.30;89.20;;;;;;20763506;23;20102;-46
2022/08/14 10:52:13;;;;;;;2.58;1.38;;;24.40;87.20;;;;;;20730929;23;20051;-48
2022/08/14 11:02:28;;;;;;;1.60;1.48;;;24.70;90.20;;;;;;20946434;23;20047;-64
2022/08/14 11:12:34;;;;;;;1.30;1.20;;;24.50;81.10;;;;;;20732150;23;20071;31
2022/08/14 11:22:42;;;;;;;1.98;1.58;;;24.80;88.90;;;;;;20572870;23;20118;-52
2022/08/14 11:32:51;;;;;;;1.65;1.13;;;25.10;77.20;;;;;;20853655;23;20047;-63
2022/08/14 11:42:54;;;;;;;2.75;1.30;;;24.00;84.90;;;;;;20733299;23;20106;-51
2022/08/14 12:03:57;;;;;;;4.45;1.50;;;24.80;82.80;;;;;;20672520;23;20134;-65
2022/08/14 12:14:09;;;;;;;1.90;1.40;;;25.50;84.30;;;;;;20610534;23;1524349;-49
2022/08/14 12:24:25;;;;;;;1.85;1.70;;;24.70;88.00;;;;;;20769562;23;20106;-65
2022/08/14 12:34:35;;;;;;;2.50;2.30;;;25.20;86.10;;;;;;20813486;23;20055;-53
2022/08/14 12:55:15;;;;;;;3.47;2.53;;;25.60;85.60;;;;;;20811020;23;20078;31
2022/08/14 13:05:25;;;;;;;2.33;1.80;;;25.50;85.20;;;;;;20625078;23;20055;-52
2022/08/14 13:15:28;;;;;;;3.65;2.60;;;25.00;86.90;;;;;;21024095;23;20087;-66
2022/08/14 13:25:32;;;;;;;2.53;2.20;;;24.70;85.00;;;;;;20743542;23;20047;-52
2022/08/14 13:35:37;;;;;;;2.97;2.08;;;24.20;84.70;;;;;;20630099;23;20062;-60
2022/08/14 13:45:39;;;;;;;2.20;2.00;;;23.40;86.70;;;;;;20816371;23;20078;-63
2022/08/14 13:55:46;;;;;;;3.30;2.47;;;23.10;89.50;;;;;;20791057;23;21617;-53
2022/08/14 14:06:07;;;;;;;3.78;2.20;;;24.00;86.70;;;;;;20707430;23;20047;-62
2022/08/14 14:16:13;;;;;;;3.25;1.90;;;25.50;83.10;;;;;;20646390;23;20051;-64
2022/08/14 14:26:17;;;;;;;2.45;1.80;;;25.30;83.90;;;;;;20720401;23;20563;-60
2022/08/14 14:36:26;;;;;;;2.22;2.03;;;25.00;87.10;;;;;;20853011;23;20294;-66
2022/08/14 14:46:49;;;;;;;3.15;2.25;;;25.50;84.20;;;;;;20652326;23;20277;-64
2022/08/14 14:56:54;;;;;;;3.33;2.00;;;25.20;84.20;;;;;;20606406;23;20181;-48
2022/08/14 15:06:56;;;;;;;2.17;1.73;;;24.80;86.20;;;;;;20615659;23;20060;-66
2022/08/14 15:16:59;;;;;;;3.00;1.40;;;25.00;86.80;;;;;;20773853;23;20458;-57
2022/08/14 15:27:05;;;;;;;2.05;1.70;;;25.50;85.30;;;;;;20796967;23;20044;-54
2022/08/14 15:37:10;;;;;;;2.97;2.63;;;26.20;83.30;;;;;;20852771;23;20014;-62
2022/08/14 15:47:14;;;;;;;2.70;2.50;;;26.30;80.10;;;;;;20741847;23;20110;-52
2022/08/14 15:57:35;;;;;;;3.05;2.70;;;25.00;83.20;;;;;;20680911;23;20567;31
2022/08/14 16:07:41;;;;;;;2.63;2.38;;;23.80;84.50;;;;;;20664408;23;20059;-63
2022/08/14 16:17:47;;;;;;;1.70;1.30;;;23.50;85.10;;;;;;20766560;23;20052;-54
2022/08/14 16:27:50;;;;;;;1.90;1.20;;;24.20;83.90;;;;;;20901536;23;20074;-63
2022/08/14 16:38:02;;;;;;;1.85;1.38;;;24.00;79.00;;;;;;20756167;23;20071;31
2022/08/14 16:48:10;;;;;;;1.90;1.70;;;22.30;85.10;;;;;;20703214;23;19926;-55
2022/08/14 16:58:14;;;;;;;2.10;1.88;;;20.90;87.10;;;;;;20836163;23;20055;-61
2022/08/14 17:08:21;;;;;;;3.20;1.60;;;20.00;89.70;;;;;;20771064;23;20086;-55
2022/08/14 17:18:41;;;;;;;5.60;4.10;;;19.00;91.20;;;;;;20723092;23;20067;-61
2022/08/14 17:28:45;;;;;;;5.90;4.80;;;18.30;92.70;;;;;;20583818;23;20079;-52
2022/08/14 17:39:05;;;;;;;22.33;17.15;;;17.60;94.10;;;;;;20775559;23;20144;-46
2022/08/14 17:49:15;;;;;;;6.75;4.30;;;17.00;95.50;;;;;;20833251;23;20084;-49
2022/08/14 17:59:21;;;;;;;2.75;2.33;;;16.70;95.80;;;;;;20868191;23;20063;31
2022/08/14 18:09:26;;;;;;;5.03;3.22;;;16.30;96.90;;;;;;20731305;23;20055;-47
2022/08/14 18:19:31;;;;;;;5.55;3.50;;;16.00;98.20;;;;;;20824882;23;20098;-48
2022/08/14 18:29:45;;;;;;;4.13;3.13;;;15.70;99.30;;;;;;20854772;23;20684;-46
2022/08/14 18:40:15;;;;;;;7.72;4.78;;;15.30;99.90;;;;;;20681221;23;20083;-50
2022/08/14 19:01:28;;;;;;;8.27;5.75;;;15.00;99.90;;;;;;20738011;23;20051;-52
2022/08/14 19:11:31;;;;;;;3.13;2.50;;;15.20;99.90;;;;;;20666281;23;20056;-55
2022/08/14 19:21:57;;;;;;;4.15;2.50;;;15.60;99.90;;;;;;20900013;23;20075;-61
2022/08/14 19:32:03;;;;;;;6.80;4.90;;;15.60;99.90;;;;;;20804101;23;20067;-52
2022/08/14 19:42:07;;;;;;;6.20;3.97;;;15.50;99.90;;;;;;20820253;23;20035;-49
2022/08/14 19:52:31;;;;;;;4.55;2.75;;;15.50;99.90;;;;;;20842238;23;20055;-63
2022/08/14 20:02:39;;;;;;;7.38;5.88;;;15.60;99.90;;;;;;20895874;23;20051;-55
2022/08/14 20:12:43;;;;;;;4.68;3.13;;;15.60;99.90;;;;;;20648677;23;2415097;-47
2022/08/14 20:22:47;;;;;;;4.20;3.65;;;15.40;99.90;;;;;;20843980;23;20091;-57
2022/08/14 20:53:56;;;;;;;5.35;2.80;;;15.40;99.90;;;;;;20590521;23;20083;-53
2022/08/14 21:04:04;;;;;;;6.28;3.30;;;16.20;99.90;;;;;;20804218;23;20055;-48
2022/08/14 21:14:06;;;;;;;4.68;2.75;;;16.90;99.90;;;;;;20705094;23;20047;-51
2022/08/14 21:24:23;;;;;;;3.38;2.75;;;16.60;99.90;;;;;;20734585;23;20473;-55
2022/08/14 21:34:30;;;;;;;6.15;2.50;;;16.60;99.90;;;;;;20742981;23;20087;-48
2022/08/14 21:44:32;;;;;;;4.78;2.50;;;17.10;99.90;;;;;;20781595;23;20579;-50
2022/08/14 21:54:42;;;;;;;5.35;3.30;;;17.40;99.90;;;;;;20787585;23;21199;-41
2022/08/14 22:05:07;;;;;;;3.20;2.90;;;17.60;99.90;;;;;;20703677;23;20082;-43
2022/08/14 22:15:12;;;;;;;5.65;3.97;;;17.40;99.90;;;;;;20873817;23;20051;-54
2022/08/14 22:25:16;;;;;;;3.10;2.60;;;17.20;99.90;;;;;;20776376;23;20063;-43
2022/08/14 22:35:19;;;;;;;4.38;3.10;;;16.90;99.90;;;;;;20741258;23;20095;-55
2022/08/14 22:45:37;;;;;;;5.43;3.35;;;16.40;99.90;;;;;;20663927;23;20055;-51
2022/08/14 22:55:39;;;;;;;4.05;3.45;;;15.60;99.90;;;;;;20885286;23;20051;-48
2022/08/14 23:05:42;;;;;;;5.07;3.50;;;15.20;99.90;;;;;;20730424;23;20043;-52
2022/08/14 23:15:49;;;;;;;3.92;2.92;;;15.10;99.90;;;;;;20801598;23;20075;-45
2022/08/14 23:26:07;;;;;;;4.63;2.90;;;15.30;99.90;;;;;;20645890;23;20055;-50
2022/08/14 23:36:11;;;;;;;3.10;2.75;;;15.80;99.90;;;;;;20735218;23;20483;-50
2022/08/14 23:46:24;;;;;;;3.58;2.75;;;16.40;99.90;;;;;;20783799;23;20055;-49
2022/08/14 23:56:32;;;;;;;3.80;2.33;;;16.50;99.90;;;;;;20725973;23;20058;-59
